Time;durP1;ratioP1;P1;durP2;ratioP2;P2;SDS_P1;SDS_P2;PMS_P1;PMS_P2;Temp;Humidity;BMP_temperature;BMP_pressure;BME280_temperature;BME280_humidity;BME280_pressure;Samples;Min_cycle;Max_cycle;Signal;HPM_P1;HPM_P2
2023/11/12 00:00:14;;;;;;;7.30;6.67;;;;;;;-144.99;100.00;67352.69;5063646;28;20237;-87
2023/11/12 00:02:39;;;;;;;10.27;9.30;;;;;;;-144.99;100.00;67352.69;5063276;28;20735;-85
2023/11/12 00:05:05;;;;;;;8.27;7.47;;;;;;;-144.99;100.00;67352.69;5060076;28;20273;-87
2023/11/12 00:07:31;;;;;;;10.00;6.00;;;;;;;-144.99;100.00;67352.69;5061328;28;20196;-87
2023/11/12 00:09:56;;;;;;;10.23;5.43;;;;;;;-144.99;100.00;67352.69;5065151;28;20294;-86
2023/11/12 00:12:22;;;;;;;10.00;9.13;;;;;;;-144.99;100.00;67352.69;5063388;28;20182;-87
2023/11/12 00:14:48;;;;;;;17.73;5.87;;;;;;;-144.99;100.00;67352.69;5061498;28;20182;-86
2023/11/12 00:17:15;;;;;;;9.93;9.03;;;;;;;-144.99;100.00;67352.69;5066813;28;20195;-86
2023/11/12 00:19:40;;;;;;;16.30;8.73;;;;;;;-144.99;100.00;67352.69;5061722;28;20209;-86
2023/11/12 00:22:06;;;;;;;6.00;5.50;;;;;;;-144.99;100.00;67352.69;5064974;28;20182;-86
2023/11/12 00:24:32;;;;;;;9.67;8.87;;;;;;;-144.99;100.00;67352.69;5063203;28;20662;-87
2023/11/12 00:26:57;;;;;;;15.60;14.10;;;;;;;-144.99;100.00;67352.69;5059682;28;20183;-87
2023/11/12 00:29:23;;;;;;;16.07;14.60;;;;;;;-144.99;100.00;67352.69;5059714;28;20210;-86
2023/11/12 00:31:49;;;;;;;12.40;9.50;;;;;;;-144.99;100.00;67352.69;5061995;28;20205;-87
2023/11/12 00:34:14;;;;;;;10.37;9.47;;;;;;;-144.99;100.00;67352.69;5066787;28;20202;-87
2023/11/12 00:36:42;;;;;;;12.43;11.43;;;;;;;-144.99;100.00;67352.69;5061795;28;20277;-86
2023/11/12 00:39:09;;;;;;;15.60;14.10;;;;;;;-144.99;100.00;67352.69;5071484;28;20206;-87
2023/11/12 00:41:37;;;;;;;11.00;9.93;;;;;;;-144.99;100.00;67352.69;5063146;28;20221;-86
2023/11/12 00:44:03;;;;;;;9.90;9.03;;;;;;;-144.99;100.00;67352.69;5072838;28;20232;-87
2023/11/12 00:46:28;;;;;;;14.53;6.27;;;;;;;-144.99;100.00;67352.69;5070932;28;20183;-87
2023/11/12 00:48:55;;;;;;;15.47;10.37;;;;;;;-144.99;100.00;67352.69;5062860;28;20306;-87
2023/11/12 00:51:20;;;;;;;6.17;5.67;;;;;;;-144.99;100.00;67352.69;5063298;28;20186;-86
2023/11/12 00:53:45;;;;;;;11.20;10.27;;;;;;;-144.99;100.00;67352.69;5072293;28;20186;-86
2023/11/12 00:56:11;;;;;;;11.83;10.93;;;;;;;-144.99;100.00;67352.69;5065405;28;20214;-86
2023/11/12 00:58:37;;;;;;;15.97;14.10;;;;;;;-144.99;100.00;67352.69;5071956;28;20296;-86
2023/11/12 01:01:02;;;;;;;13.57;10.83;;;;;;;-144.99;100.00;67352.69;5068948;28;20178;-86
2023/11/12 01:03:32;;;;;;;14.07;12.77;;;;;;;-144.99;100.00;67352.69;5075092;28;20182;-86
2023/11/12 01:05:58;;;;;;;5.33;4.77;;;;;;;-144.99;100.00;67352.69;5058815;28;20559;-86
2023/11/12 01:08:23;;;;;;;11.93;10.80;;;;;;;-144.99;100.00;67352.69;5069272;28;20183;-86
2023/11/12 01:10:49;;;;;;;16.23;14.93;;;;;;;-144.99;100.00;67352.69;5065692;28;20236;-86
2023/11/12 01:13:14;;;;;;;13.03;11.83;;;;;;;-144.99;100.00;67352.69;5066563;28;20183;-86
2023/11/12 01:15:43;;;;;;;18.00;13.77;;;;;;;-144.99;100.00;67352.69;5067822;28;20182;-87
2023/11/12 01:18:08;;;;;;;15.43;14.03;;;;;;;-144.99;100.00;67352.69;5076106;28;20198;-85
2023/11/12 01:20:36;;;;;;;15.53;13.43;;;;;;;-144.99;100.00;67352.69;5066518;28;20205;-86
2023/11/12 01:23:01;;;;;;;14.30;12.63;;;;;;;-144.99;100.00;67352.69;5072118;28;20207;-87
2023/11/12 01:25:26;;;;;;;10.67;9.77;;;;;;;-144.99;100.00;67352.69;5070369;28;20186;-87
2023/11/12 01:27:52;;;;;;;12.87;11.77;;;;;;;-144.99;100.00;67352.69;5067359;28;20205;-86
2023/11/12 01:30:17;;;;;;;14.40;13.20;;;;;;;-144.99;100.00;67352.69;5074329;28;20255;-88
2023/11/12 01:32:42;;;;;;;12.77;11.67;;;;;;;-144.99;100.00;67352.69;5066090;28;20564;-86
2023/11/12 01:35:08;;;;;;;14.90;13.60;;;;;;;-144.99;100.00;67352.69;5070569;28;20183;-85
2023/11/12 01:37:33;;;;;;;16.87;13.10;;;;;;;-144.99;100.00;67352.69;5062903;28;20688;-87
2023/11/12 01:39:58;;;;;;;16.20;14.70;;;;;;;-144.99;100.00;67352.69;5067711;28;20202;-85
2023/11/12 01:42:25;;;;;;;19.07;9.80;;;;;;;-144.99;100.00;67352.69;5075885;28;20183;-86
2023/11/12 01:44:50;;;;;;;12.47;11.53;;;;;;;-144.99;100.00;67352.69;5065655;28;20187;-86
2023/11/12 01:47:16;;;;;;;9.53;8.73;;;;;;;-144.99;100.00;67352.69;5065803;28;20549;-85
2023/11/12 01:49:42;;;;;;;7.90;7.00;;;;;;;-144.99;100.00;67352.69;5085148;22;20226;-87
2023/11/12 01:52:09;;;;;;;10.83;10.00;;;;;;;-144.99;100.00;67352.69;5053745;28;20274;-87
2023/11/12 01:54:39;;;;;;;18.30;16.60;;;;;;;-144.99;100.00;67352.69;5054810;28;20176;-87
2023/11/12 01:57:07;;;;;;;17.70;16.00;;;;;;;-144.99;100.00;67352.69;5054419;28;20301;-88
2023/11/12 01:59:34;;;;;;;11.07;10.00;;;;;;;-144.99;100.00;67352.69;5053334;28;20673;-87
2023/11/12 02:02:00;;;;;;;18.20;12.57;;;;;;;-144.99;100.00;67352.69;5054611;28;20190;-87
2023/11/12 02:04:27;;;;;;;13.90;12.47;;;;;;;-144.99;100.00;67352.69;5054330;28;20546;-87
2023/11/12 02:06:52;;;;;;;7.70;7.10;;;;;;;-144.99;100.00;67352.69;5054053;28;20202;-86
2023/11/12 02:09:18;;;;;;;16.20;9.37;;;;;;;-144.99;100.00;67352.69;5052869;28;20207;-86
2023/11/12 02:11:44;;;;;;;12.63;11.60;;;;;;;-144.99;100.00;67352.69;5054198;28;20711;-87
2023/11/12 02:14:10;;;;;;;10.53;9.23;;;;;;;-144.99;100.00;67352.69;5054154;28;20217;-87
2023/11/12 02:16:35;;;;;;;12.50;11.57;;;;;;;-144.99;100.00;67352.69;5053667;28;20302;-86
2023/11/12 02:19:01;;;;;;;10.93;10.03;;;;;;;-144.99;100.00;67352.69;5052792;28;20233;-86
2023/11/12 02:21:31;;;;;;;15.40;11.73;;;;;;;-144.99;100.00;67352.69;5052724;28;20179;-87
2023/11/12 02:23:57;;;;;;;18.87;13.90;;;;;;;-144.99;100.00;67352.69;5053052;28;20266;-88
2023/11/12 02:26:23;;;;;;;8.97;7.83;;;;;;;-144.99;100.00;67352.69;5052568;28;20210;-87
2023/11/12 02:28:48;;;;;;;11.33;10.23;;;;;;;-144.99;100.00;67352.69;5052504;28;20221;-87
2023/11/12 02:31:15;;;;;;;11.97;10.93;;;;;;;-144.99;100.00;67352.69;5053954;28;20653;-87
2023/11/12 02:33:40;;;;;;;10.90;9.93;;;;;;;-144.99;100.00;67352.69;5052426;28;20183;-88
2023/11/12 02:36:07;;;;;;;10.30;7.97;;;;;;;-144.99;100.00;67352.69;5052221;28;20244;-87
2023/11/12 02:38:33;;;;;;;10.27;9.33;;;;;;;-144.99;100.00;67352.69;5052551;28;20183;-87
2023/11/12 02:41:01;;;;;;;13.00;9.73;;;;;;;-144.99;100.00;67352.69;5053449;28;20270;-87
2023/11/12 02:43:28;;;;;;;12.20;10.73;;;;;;;-144.99;100.00;67352.69;5053390;28;20187;-87
2023/11/12 02:45:53;;;;;;;10.77;9.80;;;;;;;-144.99;100.00;67352.69;5051875;28;20543;-87
2023/11/12 02:48:18;;;;;;;7.77;7.10;;;;;;;-144.99;100.00;67352.69;5053467;28;20183;-87
2023/11/12 02:50:44;;;;;;;9.30;6.07;;;;;;;-144.99;100.00;67352.69;5053262;28;20685;-86
2023/11/12 02:53:11;;;;;;;8.07;7.47;;;;;;;-144.99;100.00;67352.69;5052304;28;20184;-88
2023/11/12 02:55:37;;;;;;;8.97;8.17;;;;;;;-144.99;100.00;67352.69;5051749;28;20186;-87
2023/11/12 02:58:03;;;;;;;11.80;6.30;;;;;;;-144.99;100.00;67352.69;5052011;28;20215;-86
2023/11/12 03:00:29;;;;;;;11.87;10.90;;;;;;;-144.99;100.00;67352.69;5053170;28;20217;-87
2023/11/12 03:02:57;;;;;;;24.80;6.57;;;;;;;-144.99;100.00;67352.69;5051941;28;20646;-84
2023/11/12 03:05:24;;;;;;;16.17;14.67;;;;;;;-144.99;100.00;67352.69;5052833;28;20202;-87
2023/11/12 03:07:49;;;;;;;11.70;10.80;;;;;;;-144.99;100.00;67352.69;5053040;28;20183;-87
2023/11/12 03:10:15;;;;;;;9.97;9.17;;;;;;;-144.99;100.00;67352.69;5051688;28;20215;-87
2023/11/12 03:12:41;;;;;;;10.20;9.23;;;;;;;-144.99;100.00;67352.69;5052875;28;20175;-87
2023/11/12 03:15:07;;;;;;;7.40;6.80;;;;;;;-144.99;100.00;67352.69;5052856;28;20179;-87
2023/11/12 03:17:34;;;;;;;6.87;4.73;;;;;;;-144.99;100.00;67352.69;5052844;28;20211;-87
2023/11/12 03:20:00;;;;;;;12.13;7.23;;;;;;;-144.99;100.00;67352.69;5052424;28;20199;-87
2023/11/12 03:22:26;;;;;;;8.67;7.90;;;;;;;-144.99;100.00;67352.69;5051601;28;20282;-87
2023/11/12 03:24:52;;;;;;;9.90;9.00;;;;;;;-144.99;100.00;67352.69;5051189;28;20202;-87
2023/11/12 03:27:19;;;;;;;18.47;13.00;;;;;;;-144.99;100.00;67352.69;5052583;28;20179;-85
2023/11/12 03:29:45;;;;;;;15.50;10.20;;;;;;;-144.99;100.00;67352.69;5051429;28;20210;-86
2023/11/12 03:32:11;;;;;;;12.13;7.93;;;;;;;-144.99;100.00;67352.69;5051499;28;20278;-87
2023/11/12 03:34:37;;;;;;;16.00;6.83;;;;;;;-144.99;100.00;67352.69;5051047;28;20319;-87
2023/11/12 03:37:02;;;;;;;7.13;6.53;;;;;;;-144.99;100.00;67352.69;5052327;28;20222;-88
2023/11/12 03:39:27;;;;;;;10.43;9.53;;;;;;;-144.99;100.00;67352.69;5051093;28;20280;-87
2023/11/12 03:41:53;;;;;;;10.43;7.60;;;;;;;-144.99;100.00;67352.69;5052314;28;20270;-87
2023/11/12 03:44:18;;;;;;;11.27;10.17;;;;;;;-144.99;100.00;67352.69;5052330;28;20186;-86
2023/11/12 03:46:43;;;;;;;9.13;8.37;;;;;;;-144.99;100.00;67352.69;5052056;28;20179;-87
2023/11/12 03:49:09;;;;;;;5.63;5.23;;;;;;;-144.99;100.00;67352.69;5052202;28;20210;-87
2023/11/12 03:51:35;;;;;;;9.87;6.70;;;;;;;-144.99;100.00;67352.69;5052163;28;20645;-86
2023/11/12 03:54:01;;;;;;;7.17;6.53;;;;;;;-144.99;100.00;67352.69;5051033;28;20217;-87
2023/11/12 03:56:27;;;;;;;12.73;11.43;;;;;;;-144.99;100.00;67352.69;5051902;28;20287;-87
2023/11/12 03:58:56;;;;;;;7.87;7.20;;;;;;;-144.99;100.00;67352.69;5052131;28;20207;-87
2023/11/12 04:01:21;;;;;;;4.90;4.50;;;;;;;-144.99;100.00;67352.69;5050799;28;20225;-87
2023/11/12 04:03:47;;;;;;;5.97;5.47;;;;;;;-144.99;100.00;67352.69;5052044;28;20207;-88
2023/11/12 04:06:12;;;;;;;7.13;6.03;;;;;;;-144.99;100.00;67352.69;5050597;28;20214;-87
2023/11/12 04:08:37;;;;;;;7.63;6.90;;;;;;;-144.99;100.00;67352.69;5050578;28;20183;-87
2023/11/12 04:11:03;;;;;;;12.17;8.60;;;;;;;-144.99;100.00;67352.69;5051901;28;20583;-87
2023/11/12 04:13:28;;;;;;;15.93;2.97;;;;;;;-144.99;100.00;67352.69;5051861;28;20194;-87
2023/11/12 04:15:53;;;;;;;5.43;5.03;;;;;;;-144.99;100.00;67352.69;5051681;28;20258;-87
2023/11/12 04:18:19;;;;;;;5.00;4.50;;;;;;;-144.99;100.00;67352.69;5050534;28;20214;-87
2023/11/12 04:20:44;;;;;;;9.43;8.57;;;;;;;-144.99;100.00;67352.69;5051591;28;20203;-87
2023/11/12 04:23:09;;;;;;;5.63;5.23;;;;;;;-144.99;100.00;67352.69;5050639;28;20182;-87
2023/11/12 04:25:35;;;;;;;5.47;4.97;;;;;;;-144.99;100.00;67352.69;5051495;28;20710;-87
2023/11/12 04:28:00;;;;;;;7.80;5.30;;;;;;;-144.99;100.00;67352.69;5050511;28;20587;-87
2023/11/12 04:30:26;;;;;;;1.33;1.23;;;;;;;-144.99;100.00;67352.69;5050373;28;20199;-87
2023/11/12 04:32:51;;;;;;;2.13;2.03;;;;;;;-144.99;100.00;67352.69;5049616;28;20609;-87
2023/11/12 04:35:19;;;;;;;4.87;4.30;;;;;;;-144.99;100.00;67352.69;5050148;28;20273;-87
2023/11/12 04:37:44;;;;;;;5.63;5.13;;;;;;;-144.99;100.00;67352.69;5050348;28;20245;-88
2023/11/12 04:40:10;;;;;;;3.63;3.33;;;;;;;-144.99;100.00;67352.69;5051587;28;20238;-87
2023/11/12 04:42:35;;;;;;;1.67;1.57;;;;;;;-144.99;100.00;67352.69;5050533;28;20191;-88
2023/11/12 04:45:02;;;;;;;4.97;4.50;;;;;;;-144.99;100.00;67352.69;5050083;28;20186;-87
2023/11/12 04:47:27;;;;;;;5.67;5.17;;;;;;;-144.99;100.00;67352.69;5050548;28;20186;-87
2023/11/12 04:49:53;;;;;;;5.73;4.60;;;;;;;-144.99;100.00;67352.69;5051881;28;20219;-89
2023/11/12 04:52:18;;;;;;;4.63;4.33;;;;;;;-144.99;100.00;67352.69;5050374;28;20668;-87
2023/11/12 04:54:47;;;;;;;4.47;3.33;;;;;;;-144.99;100.00;67352.69;5051371;28;20190;-87
2023/11/12 04:57:13;;;;;;;1.43;1.33;;;;;;;-144.99;100.00;67352.69;5051299;28;20708;-87
2023/11/12 04:59:40;;;;;;;2.47;2.27;;;;;;;-144.99;100.00;67352.69;5051304;28;20202;-88
2023/11/12 05:02:06;;;;;;;3.37;3.07;;;;;;;-144.99;100.00;67352.69;5050305;28;20190;-87
2023/11/12 05:04:34;;;;;;;3.77;3.33;;;;;;;-144.99;100.00;67352.69;5051394;28;20183;-88
2023/11/12 05:06:59;;;;;;;8.80;4.60;;;;;;;-144.99;100.00;67352.69;5052092;28;20179;-88
2023/11/12 05:09:25;;;;;;;4.17;3.07;;;;;;;-144.99;100.00;67352.69;5051594;28;20264;-88
2023/11/12 05:11:51;;;;;;;1.70;1.60;;;;;;;-144.99;100.00;67352.69;5051282;28;20183;-88
2023/11/12 05:14:16;;;;;;;0.83;0.83;;;;;;;-144.99;100.00;67352.69;5050060;28;20187;-87
2023/11/12 05:16:42;;;;;;;10.13;5.80;;;;;;;-144.99;100.00;67352.69;5050963;28;20206;-87
2023/11/12 05:19:07;;;;;;;5.53;4.37;;;;;;;-144.99;100.00;67352.69;5050184;28;20230;-89
2023/11/12 05:21:33;;;;;;;4.30;3.57;;;;;;;-144.99;100.00;67352.69;5049875;28;20641;-87
2023/11/12 05:23:58;;;;;;;4.47;3.73;;;;;;;-144.99;100.00;67352.69;5050076;28;20219;-87
2023/11/12 05:26:24;;;;;;;5.70;5.17;;;;;;;-144.99;100.00;67352.69;5050123;28;20190;-87
2023/11/12 05:28:49;;;;;;;1.73;1.10;;;;;;;-144.99;100.00;67352.69;5049835;28;20179;-87
2023/11/12 05:31:15;;;;;;;0.10;0.10;;;;;;;-144.99;100.00;67352.69;5049970;28;20187;-87
2023/11/12 05:33:41;;;;;;;2.63;2.43;;;;;;;-144.99;100.00;67352.69;5049943;28;20183;-87
2023/11/12 05:36:07;;;;;;;2.20;2.00;;;;;;;-144.99;100.00;67352.69;5049589;28;20183;-87
2023/11/12 05:38:33;;;;;;;1.87;1.77;;;;;;;-144.99;100.00;67352.69;5051051;28;20210;-87
2023/11/12 05:40:59;;;;;;;6.87;4.33;;;;;;;-144.99;100.00;67352.69;5049902;28;20206;-87
2023/11/12 05:43:25;;;;;;;0.50;0.50;;;;;;;-144.99;100.00;67352.69;5052572;28;20726;-88
2023/11/12 05:45:50;;;;;;;10.20;3.50;;;;;;;-144.99;100.00;67352.69;5054262;28;20680;-87
2023/11/12 05:48:16;;;;;;;3.37;3.17;;;;;;;-144.99;100.00;67352.69;5054581;28;20217;-87
2023/11/12 05:50:42;;;;;;;3.50;3.27;;;;;;;-144.99;100.00;67352.69;5054502;28;20222;-87
2023/11/12 05:53:07;;;;;;;2.10;2.00;;;;;;;-144.99;100.00;67352.69;5054524;28;20262;-87
2023/11/12 05:55:33;;;;;;;10.80;2.33;;;;;;;-144.99;100.00;67352.69;5054144;28;20325;-87
2023/11/12 05:57:58;;;;;;;1.00;1.00;;;;;;;-144.99;100.00;67352.69;5053166;28;20211;-87
2023/11/12 06:00:26;;;;;;;1.90;1.80;;;;;;;-144.99;100.00;67352.69;5053163;28;20210;-87
2023/11/12 06:02:51;;;;;;;7.33;3.67;;;;;;;-144.99;100.00;67352.69;5053070;28;20206;-87
2023/11/12 06:05:17;;;;;;;2.47;2.20;;;;;;;-144.99;100.00;67352.69;5052830;28;20182;-87
2023/11/12 06:07:45;;;;;;;3.40;3.10;;;;;;;-144.99;100.00;67352.69;5054416;28;20656;-88
2023/11/12 06:10:10;;;;;;;2.73;2.57;;;;;;;-144.99;100.00;67352.69;5044745;28;20277;-88
2023/11/12 06:12:36;;;;;;;3.40;3.20;;;;;;;-144.99;100.00;67352.69;5054185;28;20219;-87
2023/11/12 06:15:01;;;;;;;3.93;3.50;;;;;;;-144.99;100.00;67352.69;5053977;28;20555;-87
2023/11/12 06:17:26;;;;;;;2.70;2.50;;;;;;;-144.99;100.00;67352.69;5054048;28;20205;-87
2023/11/12 06:19:54;;;;;;;1.13;1.13;;;;;;;-144.99;100.00;67352.69;5053864;28;20239;-87
2023/11/12 06:22:20;;;;;;;2.57;2.37;;;;;;;-144.99;100.00;67352.69;5052805;28;20237;-87
2023/11/12 06:24:45;;;;;;;2.40;2.30;;;;;;;-144.99;100.00;67352.69;5053623;28;20657;-87
2023/11/12 06:27:10;;;;;;;0.57;0.57;;;;;;;-144.99;100.00;67352.69;5053965;28;20634;-87
2023/11/12 06:29:37;;;;;;;1.13;1.03;;;;;;;-144.99;100.00;67352.69;5052500;28;20297;-87
2023/11/12 06:32:03;;;;;;;0.00;0.00;;;;;;;-144.99;100.00;67352.69;5052658;28;20183;-88
2023/11/12 06:34:28;;;;;;;0.90;0.90;;;;;;;-144.99;100.00;67352.69;5052445;28;20274;-87
2023/11/12 06:36:54;;;;;;;1.63;1.53;;;;;;;-144.99;100.00;67352.69;5053417;28;20685;-87
2023/11/12 06:39:19;;;;;;;0.60;0.50;;;;;;;-144.99;100.00;67352.69;5052369;28;20211;-87
2023/11/12 06:41:44;;;;;;;1.77;1.67;;;;;;;-144.99;100.00;67352.69;5053515;28;20693;-87
2023/11/12 06:44:11;;;;;;;1.63;0.77;;;;;;;-144.99;100.00;67352.69;5052428;28;20198;-88
2023/11/12 06:46:42;;;;;;;2.40;1.13;;;;;;;-144.99;100.00;67352.69;5051982;28;20213;-87
2023/11/12 06:49:07;;;;;;;0.30;0.30;;;;;;;-144.99;100.00;67352.69;5053333;28;20246;-87
2023/11/12 06:51:32;;;;;;;0.57;0.57;;;;;;;-144.99;100.00;67352.69;5052173;28;20668;-87
2023/11/12 06:53:58;;;;;;;1.10;0.97;;;;;;;-144.99;100.00;67352.69;5052948;28;20191;-88
2023/11/12 06:56:23;;;;;;;0.00;0.00;;;;;;;-144.99;100.00;67352.69;5051330;28;20183;-88
2023/11/12 06:58:48;;;;;;;1.67;1.57;;;;;;;-144.99;100.00;67352.69;5052019;28;20179;-88
2023/11/12 07:01:14;;;;;;;2.50;2.20;;;;;;;-144.99;100.00;67352.69;5052125;28;20178;-87
2023/11/12 07:03:39;;;;;;;1.53;1.43;;;;;;;-144.99;100.00;67352.69;5052979;28;20590;-87
2023/11/12 07:06:06;;;;;;;2.27;2.17;;;;;;;-144.99;100.00;67352.69;5052793;28;20187;-88
2023/11/12 07:08:31;;;;;;;5.63;1.43;;;;;;;-144.99;100.00;67352.69;5052169;28;20175;-87
2023/11/12 07:10:58;;;;;;;2.63;2.43;;;;;;;-144.99;100.00;67352.69;5051590;28;20217;-87
2023/11/12 07:13:23;;;;;;;2.17;2.07;;;;;;;-144.99;100.00;67352.69;5052835;28;20175;-87
2023/11/12 07:15:49;;;;;;;0.83;0.83;;;;;;;-144.99;100.00;67352.69;5051432;28;20274;-88
2023/11/12 07:18:17;;;;;;;2.70;2.37;;;;;;;-144.99;100.00;67352.69;5053365;28;20560;-88
2023/11/12 07:20:42;;;;;;;3.87;1.10;;;;;;;-144.99;100.00;67352.69;5052848;28;20209;-87
2023/11/12 07:23:08;;;;;;;2.20;1.77;;;;;;;-144.99;100.00;67352.69;5052827;28;20254;-87
2023/11/12 07:25:33;;;;;;;2.43;1.87;;;;;;;-144.99;100.00;67352.69;5052483;28;20584;-87
2023/11/12 07:27:59;;;;;;;0.90;0.90;;;;;;;-144.99;100.00;67352.69;5051618;28;20201;-87
2023/11/12 07:30:24;;;;;;;1.57;1.47;;;;;;;-144.99;100.00;67352.69;5051800;28;20206;-87
2023/11/12 07:32:49;;;;;;;2.40;2.20;;;;;;;-144.99;100.00;67352.69;5051480;28;20201;-87
2023/11/12 07:35:15;;;;;;;2.13;1.97;;;;;;;-144.99;100.00;67352.69;5053058;28;20256;-87
2023/11/12 07:37:43;;;;;;;10.33;8.10;;;;;;;-144.99;100.00;67352.69;5053493;28;20234;-88
2023/11/12 07:40:11;;;;;;;2.33;2.23;;;;;;;-144.99;100.00;67352.69;5051825;28;20232;-87
2023/11/12 07:42:38;;;;;;;6.40;2.60;;;;;;;-144.99;100.00;67352.69;5052818;28;20665;-87
2023/11/12 07:45:08;;;;;;;1.57;1.47;;;;;;;-144.99;100.00;67352.69;5050972;28;20245;-88
2023/11/12 07:47:34;;;;;;;25.60;2.30;;;;;;;-144.99;100.00;67352.69;5050987;28;20214;-87
2023/11/12 07:49:59;;;;;;;1.53;1.23;;;;;;;-144.99;100.00;67352.69;5075872;23;20247;-87
2023/11/12 07:52:25;;;;;;;0.00;0.00;;;;;;;-144.99;100.00;67352.69;5063860;28;20663;-86
2023/11/12 07:54:50;;;;;;;3.13;2.73;;;;;;;-144.99;100.00;67352.69;5051220;28;20181;-86
2023/11/12 07:57:18;;;;;;;2.83;2.60;;;;;;;-144.99;100.00;67352.69;5058131;28;20198;-87
2023/11/12 07:59:43;;;;;;;3.57;3.27;;;;;;;-144.99;100.00;67352.69;5054468;28;20217;-87
2023/11/12 08:02:09;;;;;;;2.03;1.90;;;;;;;-144.99;100.00;67352.69;5071758;28;20191;-87
2023/11/12 08:04:34;;;;;;;7.63;2.07;;;;;;;-144.99;100.00;67352.69;5070807;28;20187;-87
2023/11/12 08:06:59;;;;;;;7.20;3.10;;;;;;;-144.99;100.00;67352.69;5054771;28;20210;-87
2023/11/12 08:09:25;;;;;;;2.70;2.50;;;;;;;-144.99;100.00;67352.69;5062877;28;20601;-86
2023/11/12 08:11:50;;;;;;;3.20;3.00;;;;;;;-144.99;100.00;67352.69;5061480;28;20596;-87
2023/11/12 08:14:15;;;;;;;2.07;1.93;;;;;;;-144.99;100.00;67352.69;5066478;28;20722;-87
2023/11/12 08:16:41;;;;;;;3.30;3.07;;;;;;;-144.99;100.00;67352.69;5055089;28;20203;-86
2023/11/12 08:19:06;;;;;;;6.63;6.13;;;;;;;-144.99;100.00;67352.69;5071030;28;20186;-87
2023/11/12 08:21:31;;;;;;;2.20;2.07;;;;;;;-144.99;100.00;67352.69;5054350;28;20253;-87
2023/11/12 08:23:58;;;;;;;3.77;3.37;;;;;;;-144.99;100.00;67352.69;5055354;28;20218;-87
2023/11/12 08:26:24;;;;;;;3.53;2.97;;;;;;;-144.99;100.00;67352.69;5055409;28;20198;-87
2023/11/12 08:28:51;;;;;;;2.83;2.63;;;;;;;-144.99;100.00;67352.69;5069601;28;20186;-86
2023/11/12 08:31:16;;;;;;;4.43;4.13;;;;;;;-144.99;100.00;67352.69;5056338;28;20642;-87
2023/11/12 08:33:42;;;;;;;3.23;3.00;;;;;;;-144.99;100.00;67352.69;5053064;28;20202;-88
2023/11/12 08:36:07;;;;;;;2.70;1.37;;;;;;;-144.99;100.00;67352.69;5057278;28;20278;-87
2023/11/12 08:38:35;;;;;;;1.13;1.10;;;;;;;-144.99;100.00;67352.69;5050380;28;20685;-87
2023/11/12 08:41:01;;;;;;;6.00;2.27;;;;;;;-144.99;100.00;67352.69;5055545;28;20209;-87
2023/11/12 08:43:26;;;;;;;0.50;0.47;;;;;;;-144.99;100.00;67352.69;5070582;28;20190;-87
2023/11/12 08:45:52;;;;;;;2.50;2.30;;;;;;;-144.99;100.00;67352.69;5067589;28;20273;-86
2023/11/12 08:48:18;;;;;;;1.50;1.33;;;;;;;-144.99;100.00;67352.69;5058198;28;20178;-86
2023/11/12 08:50:43;;;;;;;3.13;2.83;;;;;;;-144.99;100.00;67352.69;5070585;28;20214;-87
2023/11/12 08:53:08;;;;;;;1.67;1.40;;;;;;;-144.99;100.00;67352.69;5070537;28;20269;-87
2023/11/12 08:55:34;;;;;;;2.17;2.07;;;;;;;-144.99;100.00;67352.69;5054796;28;20207;-87
2023/11/12 08:58:04;;;;;;;1.33;1.23;;;;;;;-144.99;100.00;67352.69;5050498;28;20199;-87
2023/11/12 09:00:30;;;;;;;5.70;2.73;;;;;;;-144.99;100.00;67352.69;5058370;28;20234;-87
2023/11/12 09:02:55;;;;;;;4.53;2.63;;;;;;;-144.99;100.00;67352.69;5070131;28;20217;-87
2023/11/12 09:05:20;;;;;;;1.13;1.13;;;;;;;-144.99;100.00;67352.69;5055498;28;20225;-87
2023/11/12 09:07:46;;;;;;;4.90;2.63;;;;;;;-144.99;100.00;67352.69;5060784;28;20182;-87
2023/11/12 09:10:12;;;;;;;3.30;2.30;;;;;;;-144.99;100.00;67352.69;5056644;28;20569;-87
2023/11/12 09:12:37;;;;;;;0.93;0.83;;;;;;;-144.99;100.00;67352.69;5050999;28;20187;-87
2023/11/12 09:15:04;;;;;;;14.67;2.73;;;;;;;-144.99;100.00;67352.69;5071359;28;20182;-86
2023/11/12 09:17:29;;;;;;;9.83;4.03;;;;;;;-144.99;100.00;67352.69;5054482;28;20218;-87
2023/11/12 09:19:54;;;;;;;2.23;2.13;;;;;;;-144.99;100.00;67352.69;5073623;28;20198;-87
2023/11/12 09:22:20;;;;;;;3.63;3.17;;;;;;;-144.99;100.00;67352.69;5074303;28;20218;-87
2023/11/12 09:24:45;;;;;;;1.00;1.00;;;;;;;-144.99;100.00;67352.69;5055920;28;20183;-87
2023/11/12 09:27:11;;;;;;;2.97;1.83;;;;;;;-144.99;100.00;67352.69;5059043;28;20178;-87
2023/11/12 09:29:37;;;;;;;2.97;2.77;;;;;;;-144.99;100.00;67352.69;5073783;28;20202;-87
2023/11/12 09:32:03;;;;;;;4.20;3.77;;;;;;;-144.99;100.00;67352.69;5074122;28;20178;-87
2023/11/12 09:34:28;;;;;;;2.00;1.90;;;;;;;-144.99;100.00;67352.69;5059236;28;20240;-87
2023/11/12 09:36:54;;;;;;;3.53;3.23;;;;;;;-144.99;100.00;67352.69;5069883;28;20680;-87
2023/11/12 09:39:22;;;;;;;2.70;2.43;;;;;;;-144.99;100.00;67352.69;5060160;28;20609;-87
2023/11/12 09:41:51;;;;;;;2.73;2.50;;;;;;;-144.99;100.00;67352.69;5057172;28;20653;-87
2023/11/12 09:44:17;;;;;;;3.07;2.80;;;;;;;-144.99;100.00;67352.69;5074819;28;20571;-86
2023/11/12 09:46:45;;;;;;;2.53;2.33;;;;;;;-144.99;100.00;67352.69;5057013;28;20649;-87
2023/11/12 09:49:11;;;;;;;2.17;2.07;;;;;;;-144.99;100.00;67352.69;5065573;28;20190;-86
2023/11/12 09:51:40;;;;;;;2.30;2.00;;;;;;;-144.99;100.00;67352.69;5057474;28;20191;-87
2023/11/12 09:54:08;;;;;;;8.77;3.10;;;;;;;-144.99;100.00;67352.69;5069533;28;20202;-87
2023/11/12 09:56:35;;;;;;;2.77;2.47;;;;;;;-144.99;100.00;67352.69;5061751;28;20722;-87
2023/11/12 09:59:00;;;;;;;8.03;3.53;;;;;;;-144.99;100.00;67352.69;5054029;28;20186;-84
2023/11/12 10:01:26;;;;;;;2.87;2.60;;;;;;;-144.99;100.00;67352.69;5061100;28;20210;-87
2023/11/12 10:03:51;;;;;;;3.33;3.03;;;;;;;-144.99;100.00;67352.69;5074880;28;20182;-87
2023/11/12 10:06:20;;;;;;;1.87;1.77;;;;;;;-144.99;100.00;67352.69;5058975;28;20707;-86
2023/11/12 10:08:46;;;;;;;2.27;2.07;;;;;;;-144.99;100.00;67352.69;5063014;28;20175;-87
2023/11/12 10:11:24;;;;;;;2.90;2.57;;;;;;;-144.99;100.00;67352.69;5062210;28;20727;-87
2023/11/12 10:13:54;;;;;;;2.70;2.43;;;;;;;-144.99;100.00;67352.69;5053852;28;20183;-87
2023/11/12 10:16:21;;;;;;;3.63;3.10;;;;;;;-144.99;100.00;67352.69;5053775;28;20217;-88
2023/11/12 10:18:46;;;;;;;3.30;3.10;;;;;;;-144.99;100.00;67352.69;5053908;28;20229;-87
2023/11/12 10:21:12;;;;;;;2.17;1.50;;;;;;;-144.99;100.00;67352.69;5060367;28;20202;-86
2023/11/12 10:23:37;;;;;;;3.83;3.13;;;;;;;-144.99;100.00;67352.69;5072716;28;20680;-86
2023/11/12 10:26:10;;;;;;;2.50;2.30;;;;;;;-144.99;100.00;67352.69;5054599;28;20626;-86
2023/11/12 10:28:35;;;;;;;3.47;2.70;;;;;;;-144.99;100.00;67352.69;5061393;28;20222;-86
2023/11/12 10:31:01;;;;;;;6.23;2.40;;;;;;;-144.99;100.00;67352.69;5052553;28;20290;-86
2023/11/12 10:33:27;;;;;;;4.23;3.83;;;;;;;-144.99;100.00;67352.69;5054740;28;20175;-86
2023/11/12 10:35:55;;;;;;;2.57;2.37;;;;;;;-144.99;100.00;67352.69;5061284;28;20209;-86
2023/11/12 10:38:23;;;;;;;5.40;3.37;;;;;;;-144.99;100.00;67352.69;5059432;28;20202;-87
2023/11/12 10:41:00;;;;;;;2.77;2.57;;;;;;;-144.99;100.00;67352.69;5057701;28;20207;-86
2023/11/12 10:43:27;;;;;;;2.60;2.40;;;;;;;-144.99;100.00;67352.69;5057219;28;20187;-87
2023/11/12 10:46:00;;;;;;;1.30;1.20;;;;;;;-144.99;100.00;67352.69;5052508;28;20183;-87
2023/11/12 10:48:31;;;;;;;2.27;2.17;;;;;;;-144.99;100.00;67352.69;5052822;28;20201;-88
2023/11/12 10:51:00;;;;;;;9.37;2.77;;;;;;;-144.99;100.00;67352.69;5060517;28;20211;-87
2023/11/12 10:53:27;;;;;;;1.50;1.40;;;;;;;-144.99;100.00;67352.69;5059930;28;20561;-87
2023/11/12 10:55:53;;;;;;;2.10;1.93;;;;;;;-144.99;100.00;67352.69;5057375;28;20187;-87
2023/11/12 10:58:19;;;;;;;0.40;0.40;;;;;;;-144.99;100.00;67352.69;5059669;28;20226;-87
2023/11/12 11:00:47;;;;;;;0.80;0.70;;;;;;;-144.99;100.00;67352.69;5062235;28;20339;-87